Time;durP1;ratioP1;P1;durP2;ratioP2;P2;SDS_P1;SDS_P2;PMS_P1;PMS_P2;Temp;Humidity;BMP_temperature;BMP_pressure;BME280_temperature;BME280_humidity;BME280_pressure;Samples;Min_cycle;Max_cycle;Signal;HPM_P1;HPM_P2
2022/03/28 00:00:34;;;;;;;8.05;5.25;;;3.20;99.90;;;;;;5053519;28;20459;-61
2022/03/28 00:03:59;;;;;;;16.67;7.13;;;3.10;99.90;;;;;;5056436;28;20044;-62
2022/03/28 00:07:24;;;;;;;11.50;7.05;;;3.10;99.90;;;;;;5045372;28;20157;-60
2022/03/28 00:10:50;;;;;;;12.00;6.10;;;3.10;99.90;;;;;;5057547;28;20044;-60
2022/03/28 00:14:15;;;;;;;14.98;6.85;;;3.00;99.90;;;;;;5063600;28;20495;-60
2022/03/28 00:17:00;;;;;;;11.68;6.70;;;3.00;99.90;;;;;;5048791;28;20040;-52
2022/03/28 00:19:26;;;;;;;11.27;6.32;;;3.00;99.90;;;;;;5052368;28;20036;-53
2022/03/28 00:21:51;;;;;;;12.20;6.10;;;3.00;99.90;;;;;;5057946;28;20039;-52
2022/03/28 00:24:17;;;;;;;16.98;6.63;;;3.00;99.90;;;;;;5070886;28;20130;-53
2022/03/28 00:26:42;;;;;;;9.50;5.72;;;2.90;99.90;;;;;;5061725;28;20036;-52
2022/03/28 00:29:08;;;;;;;12.95;7.43;;;2.90;99.90;;;;;;5053398;28;20029;-54
2022/03/28 00:31:33;;;;;;;12.05;6.63;;;2.90;99.90;;;;;;5070154;28;20035;-53
2022/03/28 00:33:59;;;;;;;15.25;6.97;;;2.90;99.90;;;;;;5053017;28;20103;-52
2022/03/28 00:36:24;;;;;;;13.43;7.20;;;2.90;99.90;;;;;;5070128;28;20107;-50
2022/03/28 00:38:51;;;;;;;13.65;7.13;;;2.90;99.90;;;;;;5052978;28;20029;-51
2022/03/28 00:41:17;;;;;;;9.63;5.40;;;2.90;99.90;;;;;;5070129;28;20071;-54
2022/03/28 00:43:44;;;;;;;13.13;6.65;;;2.90;99.90;;;;;;5072351;28;20028;-54
2022/03/28 00:46:10;;;;;;;13.10;6.95;;;2.90;99.90;;;;;;5057250;28;20282;-51
2022/03/28 00:48:38;;;;;;;16.20;6.95;;;2.90;99.90;;;;;;5072444;28;20484;-51
2022/03/28 00:51:04;;;;;;;11.07;6.40;;;2.80;99.90;;;;;;5056243;28;20024;-53
2022/03/28 00:53:29;;;;;;;11.90;7.25;;;2.80;99.90;;;;;;5072555;28;20410;-56
2022/03/28 00:55:55;;;;;;;13.07;7.03;;;2.80;99.90;;;;;;5055158;28;20082;-51
2022/03/28 00:58:21;;;;;;;10.48;5.82;;;2.80;99.90;;;;;;5072384;28;20028;-52
2022/03/28 01:00:47;;;;;;;15.55;7.18;;;2.70;99.90;;;;;;5053894;28;20055;-52
2022/03/28 01:03:12;;;;;;;14.20;6.80;;;2.70;99.90;;;;;;5072249;28;20056;-53
2022/03/28 01:05:38;;;;;;;11.75;6.38;;;2.70;99.90;;;;;;5052762;28;20061;-53
2022/03/28 01:08:04;;;;;;;13.20;7.32;;;2.70;99.90;;;;;;5072117;28;20537;-56
2022/03/28 01:10:30;;;;;;;12.70;7.43;;;2.60;99.90;;;;;;5051681;28;20029;-55
2022/03/28 01:13:00;;;;;;;12.27;6.72;;;2.60;99.90;;;;;;5071825;28;20353;-51
2022/03/28 01:15:25;;;;;;;14.50;6.88;;;2.60;99.90;;;;;;5046643;28;20242;-54
2022/03/28 01:18:08;;;;;;;12.02;6.55;;;2.60;99.90;;;;;;5052173;28;20036;-53
2022/03/28 01:20:36;;;;;;;13.25;6.45;;;2.60;99.90;;;;;;5033154;28;20180;-50
2022/03/28 01:23:02;;;;;;;14.18;7.20;;;2.60;99.90;;;;;;5071862;28;20350;-54
2022/03/28 01:25:29;;;;;;;13.45;6.75;;;2.60;99.90;;;;;;5060820;28;20048;-53
2022/03/28 01:27:55;;;;;;;11.13;5.88;;;2.60;99.90;;;;;;5071620;28;20041;-54
2022/03/28 01:30:23;;;;;;;13.23;6.50;;;2.60;99.90;;;;;;5051946;28;20045;-55
2022/03/28 01:32:49;;;;;;;13.23;7.47;;;2.60;99.90;;;;;;5051376;28;20501;-52
2022/03/28 01:35:29;;;;;;;13.35;7.78;;;2.60;99.90;;;;;;5071042;28;20033;-54
2022/03/28 01:37:56;;;;;;;11.45;6.75;;;2.50;99.90;;;;;;5069460;28;20040;-54
2022/03/28 01:40:22;;;;;;;18.98;6.97;;;2.50;99.90;;;;;;5071709;28;20027;-53
2022/03/28 01:42:49;;;;;;;13.90;6.97;;;2.50;99.90;;;;;;5056025;28;20024;-51
2022/03/28 01:45:15;;;;;;;14.30;6.85;;;2.40;99.90;;;;;;5071411;28;20071;-51
2022/03/28 01:47:41;;;;;;;11.40;6.93;;;2.40;99.90;;;;;;5055055;28;20123;-54
2022/03/28 01:50:07;;;;;;;11.90;6.22;;;2.40;99.90;;;;;;5071585;28;20504;-52
2022/03/28 01:52:32;;;;;;;12.50;6.93;;;2.30;99.90;;;;;;5054080;28;20025;-51
2022/03/28 01:54:58;;;;;;;13.82;7.57;;;2.30;99.90;;;;;;5071236;28;20029;-50
2022/03/28 01:57:23;;;;;;;14.30;6.68;;;2.30;99.90;;;;;;5052784;28;20031;-54
2022/03/28 01:59:49;;;;;;;11.38;6.60;;;2.20;99.90;;;;;;5071198;28;20447;-52
2022/03/28 02:02:14;;;;;;;10.55;6.70;;;2.20;99.90;;;;;;5051496;28;20532;-54
2022/03/28 02:04:40;;;;;;;12.95;7.07;;;2.10;99.90;;;;;;5070984;28;20060;-53
2022/03/28 02:07:05;;;;;;;13.80;6.95;;;2.10;99.90;;;;;;5050444;28;20234;-54
2022/03/28 02:09:31;;;;;;;12.80;7.30;;;2.10;99.90;;;;;;5071251;28;20616;-54
2022/03/28 02:11:56;;;;;;;13.25;7.25;;;2.00;99.90;;;;;;5051427;28;20052;-52
2022/03/28 02:14:22;;;;;;;11.52;5.85;;;2.00;99.90;;;;;;5068218;28;20440;-52
2022/03/28 02:16:47;;;;;;;11.07;6.55;;;2.00;99.90;;;;;;5044236;28;20041;-56
2022/03/28 02:19:13;;;;;;;10.88;6.55;;;2.00;99.90;;;;;;5050049;28;20021;-51
2022/03/28 02:21:38;;;;;;;10.25;6.38;;;2.00;99.90;;;;;;5069864;28;20025;-54
2022/03/28 02:24:04;;;;;;;12.25;6.70;;;2.00;99.90;;;;;;5049659;28;20104;-52
2022/03/28 02:26:30;;;;;;;15.73;6.88;;;2.00;99.90;;;;;;5069608;28;20071;-54
2022/03/28 02:28:55;;;;;;;12.55;6.18;;;1.90;99.90;;;;;;5049250;28;20068;-53
2022/03/28 02:31:21;;;;;;;12.80;6.20;;;2.00;99.90;;;;;;5069717;28;20490;-54
2022/03/28 02:33:46;;;;;;;17.15;6.45;;;2.00;99.90;;;;;;5048503;28;20032;-53
2022/03/28 02:36:12;;;;;;;9.60;5.40;;;2.00;99.90;;;;;;5069615;28;20606;-50
2022/03/28 02:38:37;;;;;;;10.68;5.38;;;2.00;99.90;;;;;;5049135;28;20040;-51
2022/03/28 02:41:03;;;;;;;11.65;6.18;;;2.00;99.90;;;;;;5051345;28;20400;-51
2022/03/28 02:43:29;;;;;;;11.60;7.28;;;2.00;99.90;;;;;;5048969;28;20032;-53
2022/03/28 02:45:54;;;;;;;9.07;5.20;;;1.90;99.90;;;;;;5069274;28;20043;-55
2022/03/28 02:48:20;;;;;;;10.82;5.43;;;2.00;99.90;;;;;;5059579;28;20025;-52
2022/03/28 02:50:46;;;;;;;12.57;6.70;;;2.00;99.90;;;;;;5050514;28;20504;-55
2022/03/28 02:53:12;;;;;;;14.73;7.05;;;2.00;99.90;;;;;;5067344;28;20060;-52
2022/03/28 02:55:38;;;;;;;14.77;6.95;;;2.00;99.90;;;;;;5050583;28;20033;-51
2022/03/28 02:58:05;;;;;;;12.38;6.68;;;2.00;99.90;;;;;;5067330;28;20380;-53
2022/03/28 03:00:30;;;;;;;12.63;6.05;;;1.90;99.90;;;;;;5050189;28;20107;-52
2022/03/28 03:02:57;;;;;;;17.13;6.50;;;1.90;99.90;;;;;;5067519;28;20087;-53
2022/03/28 03:05:23;;;;;;;14.70;6.82;;;1.80;99.90;;;;;;5069674;28;20031;-51
2022/03/28 03:07:52;;;;;;;8.52;5.35;;;1.80;99.90;;;;;;5054737;28;20028;-53
2022/03/28 03:10:17;;;;;;;15.77;7.03;;;1.80;99.90;;;;;;5069892;28;20029;-52
2022/03/28 03:12:43;;;;;;;19.48;5.88;;;1.80;99.90;;;;;;5053845;28;20032;-50
2022/03/28 03:15:08;;;;;;;13.57;7.25;;;1.70;99.90;;;;;;5059514;28;20033;-56
2022/03/28 03:17:38;;;;;;;15.82;6.65;;;1.70;99.90;;;;;;5052166;28;20017;-55
2022/03/28 03:20:05;;;;;;;11.90;4.93;;;1.70;99.90;;;;;;5069412;28;20032;-53
2022/03/28 03:22:30;;;;;;;10.82;6.15;;;1.60;99.90;;;;;;5052042;28;20017;-53
2022/03/28 03:24:56;;;;;;;12.60;6.63;;;1.60;99.90;;;;;;5062544;28;20094;-50
2022/03/28 03:27:22;;;;;;;12.52;6.60;;;1.60;99.90;;;;;;5050501;28;20110;-56
2022/03/28 03:29:47;;;;;;;11.00;5.97;;;1.60;99.90;;;;;;5069274;28;20449;-53
2022/03/28 03:32:13;;;;;;;12.80;6.63;;;1.50;99.90;;;;;;5049491;28;20265;-53
2022/03/28 03:34:40;;;;;;;12.13;6.65;;;1.50;99.90;;;;;;5069398;28;20017;-52
2022/03/28 03:37:06;;;;;;;12.93;6.03;;;1.50;99.90;;;;;;5048165;28;20040;-52
2022/03/28 03:39:32;;;;;;;8.48;5.10;;;1.50;99.90;;;;;;5069532;28;20028;-52
2022/03/28 03:41:58;;;;;;;17.40;6.88;;;1.40;99.90;;;;;;5049584;28;20041;-53
2022/03/28 03:44:24;;;;;;;12.85;5.53;;;1.40;99.90;;;;;;5066202;28;20028;-52
2022/03/28 03:46:49;;;;;;;14.90;6.32;;;1.40;99.90;;;;;;5047985;28;20098;-55
2022/03/28 03:49:18;;;;;;;11.45;6.40;;;1.40;99.90;;;;;;5068676;28;20107;-54
2022/03/28 03:51:43;;;;;;;13.15;6.50;;;1.40;99.90;;;;;;5047612;28;20052;-52
2022/03/28 03:54:09;;;;;;;15.70;7.32;;;1.40;99.90;;;;;;5068521;28;20060;-52
2022/03/28 03:56:35;;;;;;;12.13;6.38;;;1.40;99.90;;;;;;5045508;28;20033;-53
2022/03/28 03:59:00;;;;;;;11.45;5.80;;;1.40;99.90;;;;;;5068436;28;20052;-55
2022/03/28 04:01:26;;;;;;;15.85;6.32;;;1.30;99.90;;;;;;5058905;28;20032;-49
2022/03/28 04:03:52;;;;;;;14.45;6.82;;;1.30;99.90;;;;;;5049579;28;20108;-50
2022/03/28 04:06:18;;;;;;;17.63;6.50;;;1.30;99.90;;;;;;5066597;28;20093;-50
2022/03/28 04:08:43;;;;;;;7.20;3.97;;;1.30;99.90;;;;;;5049313;28;20021;-52
2022/03/28 04:11:09;;;;;;;13.07;5.88;;;1.30;99.90;;;;;;5066673;28;20492;-50
2022/03/28 04:13:35;;;;;;;10.10;5.72;;;1.30;99.90;;;;;;5049672;28;20080;-51
2022/03/28 04:16:01;;;;;;;12.73;5.80;;;1.30;99.90;;;;;;5048984;28;20087;-50
2022/03/28 04:18:27;;;;;;;8.40;4.50;;;1.30;99.90;;;;;;5068817;28;20044;-52
2022/03/28 04:20:54;;;;;;;9.38;5.10;;;1.30;99.90;;;;;;5053776;28;20127;-49
2022/03/28 04:23:20;;;;;;;13.15;5.75;;;1.40;99.90;;;;;;5069224;28;20028;-52
2022/03/28 04:25:46;;;;;;;11.90;5.68;;;1.40;99.90;;;;;;5052595;28;20059;-51
2022/03/28 04:28:12;;;;;;;11.18;6.22;;;1.40;99.90;;;;;;5069063;28;20028;-49
2022/03/28 04:30:37;;;;;;;10.63;4.03;;;1.40;99.90;;;;;;5051741;28;20040;-52
2022/03/28 04:33:03;;;;;;;10.27;5.10;;;1.40;99.90;;;;;;5068621;28;20071;-56
2022/03/28 04:35:29;;;;;;;12.68;5.88;;;1.30;99.90;;;;;;5050631;28;20075;-50
2022/03/28 04:37:55;;;;;;;11.23;5.93;;;1.30;99.90;;;;;;5068879;28;20021;-52
2022/03/28 04:40:20;;;;;;;11.77;5.75;;;1.30;99.90;;;;;;5049403;28;20025;-54
2022/03/28 04:42:47;;;;;;;11.40;5.25;;;1.30;99.90;;;;;;5065619;28;20586;-53
2022/03/28 04:45:12;;;;;;;12.43;6.68;;;1.30;99.90;;;;;;5068795;28;20040;-49
2022/03/28 04:47:39;;;;;;;14.05;5.78;;;1.30;99.90;;;;;;5066773;28;20041;-52
2022/03/28 04:50:06;;;;;;;11.68;6.15;;;1.30;99.90;;;;;;5068914;28;20566;-53
2022/03/28 04:52:31;;;;;;;15.50;6.53;;;1.30;99.90;;;;;;5049265;28;20078;-50
2022/03/28 04:54:57;;;;;;;11.20;6.15;;;1.30;99.90;;;;;;5046859;28;20100;-52
2022/03/28 04:57:22;;;;;;;14.20;5.85;;;1.30;99.90;;;;;;5071564;28;20046;-55
2022/03/28 04:59:48;;;;;;;9.75;4.93;;;1.30;99.90;;;;;;5051055;28;20049;-53
2022/03/28 05:02:14;;;;;;;9.40;5.00;;;1.30;99.90;;;;;;5071557;28;20206;-52
2022/03/28 05:04:40;;;;;;;13.88;6.28;;;1.40;99.90;;;;;;5050841;28;20017;-52
2022/03/28 05:07:06;;;;;;;13.98;6.20;;;1.40;99.90;;;;;;5071319;28;20033;-52
2022/03/28 05:09:32;;;;;;;12.40;5.82;;;1.50;99.90;;;;;;5050876;28;20160;-52
2022/03/28 05:11:57;;;;;;;14.05;6.63;;;1.50;99.90;;;;;;5071266;28;20240;-51
2022/03/28 05:14:23;;;;;;;14.02;6.85;;;1.60;99.90;;;;;;5050809;28;20021;-51
2022/03/28 05:16:49;;;;;;;16.17;5.70;;;1.60;99.90;;;;;;5063776;28;20047;-49
2022/03/28 05:19:15;;;;;;;10.95;5.95;;;1.70;99.90;;;;;;5050503;28;20059;-54
2022/03/28 05:21:40;;;;;;;10.32;5.70;;;1.80;99.90;;;;;;5071134;28;20123;-53
2022/03/28 05:24:06;;;;;;;13.38;6.57;;;1.90;99.90;;;;;;5050222;28;20091;-54
2022/03/28 05:26:31;;;;;;;13.02;6.07;;;2.00;99.90;;;;;;5071310;28;20075;-54
2022/03/28 05:28:57;;;;;;;15.65;6.28;;;2.20;99.90;;;;;;5060967;28;20107;-51
2022/03/28 05:31:23;;;;;;;13.90;5.65;;;2.50;99.90;;;;;;5052270;28;20485;-51
2022/03/28 05:33:48;;;;;;;15.50;5.85;;;2.80;99.90;;;;;;5068791;28;20170;-51
2022/03/28 05:36:14;;;;;;;12.43;6.13;;;3.60;99.90;;;;;;5051986;28;20029;-52
2022/03/28 05:38:40;;;;;;;9.60;5.25;;;4.10;99.90;;;;;;5069088;28;20048;-53
2022/03/28 05:41:06;;;;;;;17.25;6.75;;;4.90;99.90;;;;;;5051727;28;20033;-51
2022/03/28 05:43:36;;;;;;;9.30;5.20;;;6.60;99.90;;;;;;5068996;28;20039;-49
2022/03/28 05:46:03;;;;;;;14.27;5.38;;;8.70;99.90;;;;;;5051643;28;20136;-50
2022/03/28 05:48:29;;;;;;;8.70;5.03;;;10.50;93.70;;;;;;5068732;28;20031;-50
2022/03/28 05:50:55;;;;;;;7.50;5.13;;;12.20;76.90;;;;;;5071576;28;20028;-53
2022/03/28 05:53:20;;;;;;;8.60;4.28;;;13.60;61.20;;;;;;5055840;28;20082;-49
2022/03/28 05:55:46;;;;;;;8.23;5.65;;;14.90;53.20;;;;;;5071052;28;20404;-52
2022/03/28 05:58:12;;;;;;;8.63;4.85;;;16.10;47.60;;;;;;5046019;28;20430;-51
2022/03/28 06:00:38;;;;;;;7.50;4.68;;;17.10;41.00;;;;;;5049677;28;20020;-51
2022/03/28 06:03:08;;;;;;;8.95;4.85;;;18.00;35.90;;;;;;5049627;28;20029;-51
2022/03/28 06:05:36;;;;;;;6.20;4.10;;;18.80;32.10;;;;;;5069919;28;20029;-50
2022/03/28 06:08:01;;;;;;;7.75;4.72;;;19.50;32.10;;;;;;5046816;28;20032;-50
2022/03/28 06:10:27;;;;;;;7.60;4.75;;;20.10;28.40;;;;;;5069242;28;20026;-50
2022/03/28 06:12:52;;;;;;;6.30;4.35;;;20.70;28.50;;;;;;5048430;28;20033;-51
2022/03/28 06:15:18;;;;;;;9.93;5.03;;;21.30;27.30;;;;;;5057493;28;20029;-55
2022/03/28 06:17:44;;;;;;;10.75;4.90;;;21.70;26.10;;;;;;5062775;28;20040;-53
2022/03/28 06:20:11;;;;;;;7.15;4.68;;;22.20;24.10;;;;;;5049834;28;20037;-53
2022/03/28 06:22:37;;;;;;;10.80;5.10;;;22.60;23.10;;;;;;5053310;28;20485;-52
2022/03/28 06:25:03;;;;;;;7.90;4.95;;;23.00;20.80;;;;;;5061131;28;20060;-53
2022/03/28 06:27:29;;;;;;;7.55;4.85;;;23.50;22.50;;;;;;5048148;28;20037;-52
2022/03/28 06:29:55;;;;;;;11.90;4.80;;;23.80;21.20;;;;;;5068538;28;20095;-54
2022/03/28 06:32:21;;;;;;;9.75;5.13;;;24.40;20.20;;;;;;5037090;28;20523;-50
2022/03/28 06:34:48;;;;;;;7.40;4.82;;;24.80;19.00;;;;;;5069351;28;20518;-52
2022/03/28 06:37:15;;;;;;;8.20;4.55;;;25.10;17.90;;;;;;5054295;28;20063;-54
2022/03/28 06:39:41;;;;;;;7.43;4.90;;;25.20;17.50;;;;;;5068931;28;20476;-55
2022/03/28 06:42:07;;;;;;;8.82;4.32;;;25.50;17.00;;;;;;5053264;28;20031;-55
2022/03/28 06:44:33;;;;;;;8.20;4.72;;;26.20;16.70;;;;;;5068875;28;20033;-57
2022/03/28 06:46:59;;;;;;;8.32;4.63;;;26.50;15.40;;;;;;5052308;28;20047;-55
2022/03/28 06:49:24;;;;;;;7.43;4.03;;;26.80;15.00;;;;;;5068916;28;20016;-55
2022/03/28 06:51:50;;;;;;;7.65;4.32;;;26.90;14.40;;;;;;5050895;28;20112;-55
2022/03/28 06:54:19;;;;;;;12.00;4.90;;;27.20;13.70;;;;;;5069301;28;20051;-49
2022/03/28 06:56:45;;;;;;;9.18;4.75;;;27.50;13.10;;;;;;5048986;28;20056;-55
2022/03/28 06:59:11;;;;;;;6.40;4.30;;;27.50;12.40;;;;;;5068776;28;20044;-56
2022/03/28 07:01:36;;;;;;;8.73;4.50;;;27.80;6.70;;;;;;5049108;28;20115;-53
2022/03/28 07:04:03;;;;;;;10.68;4.63;;;27.90;11.10;;;;;;5069561;28;20028;-55
2022/03/28 07:06:28;;;;;;;9.10;4.60;;;28.10;10.40;;;;;;5055287;28;20045;-53
2022/03/28 07:09:34;;;;;;;8.02;4.28;;;28.20;10.20;;;;;;5069496;28;20416;-54
2022/03/28 07:12:59;;;;;;;8.43;3.60;;;28.50;5.40;;;;;;5049959;28;20672;-55
2022/03/28 07:16:25;;;;;;;6.55;3.30;;;29.10;3.50;;;;;;5049623;28;20059;-50
2022/03/28 07:19:50;;;;;;;7.95;4.28;;;29.50;3.80;;;;;;5054616;28;20060;-53
2022/03/28 07:23:15;;;;;;;7.47;4.15;;;29.60;3.50;;;;;;5047808;28;20110;-56
2022/03/28 07:26:44;;;;;;;10.02;4.20;;;29.70;3.80;;;;;;5061249;28;20048;-54
2022/03/28 07:30:06;;;;;;;5.88;4.10;;;29.80;4.40;;;;;;5048669;28;20124;-54
2022/03/28 07:33:31;;;;;;;5.50;3.13;;;30.00;3.30;;;;;;5064469;28;20029;-52
2022/03/28 07:36:57;;;;;;;5.78;3.97;;;30.30;2.90;;;;;;5056137;28;20411;-54
2022/03/28 07:40:22;;;;;;;6.88;3.50;;;30.70;2.00;;;;;;5029543;28;20044;-53
2022/03/28 07:43:47;;;;;;;6.55;3.58;;;30.60;1.50;;;;;;5059745;28;20105;-56
2022/03/28 07:47:13;;;;;;;6.00;3.97;;;30.80;1.00;;;;;;5065529;28;20040;-52
2022/03/28 07:50:39;;;;;;;5.82;3.55;;;30.90;3.80;;;;;;5065448;28;20039;-55
2022/03/28 07:54:04;;;;;;;7.53;3.80;;;31.20;1.90;;;;;;5057448;28;20068;-53
2022/03/28 07:57:29;;;;;;;8.75;3.90;;;31.60;1.10;;;;;;5045044;28;20033;-54
2022/03/28 08:00:54;;;;;;;5.65;3.45;;;31.70;1.00;;;;;;5063024;28;20036;-55
2022/03/28 08:04:20;;;;;;;6.13;3.65;;;32.40;1.10;;;;;;5063041;28;20033;-53
2022/03/28 08:07:45;;;;;;;6.68;4.25;;;32.00;1.00;;;;;;5043360;28;20072;-55
2022/03/28 08:11:11;;;;;;;6.57;4.00;;;31.90;1.00;;;;;;5065276;28;20150;-56
2022/03/28 08:14:36;;;;;;;5.97;3.42;;;32.30;1.00;;;;;;5057243;28;20381;-52
2022/03/28 08:18:01;;;;;;;4.97;3.40;;;32.40;1.00;;;;;;5042588;28;20047;-54
2022/03/28 08:21:26;;;;;;;4.60;3.00;;;32.50;1.00;;;;;;5060952;28;20393;-56
2022/03/28 08:24:52;;;;;;;3.67;2.85;;;32.80;1.00;;;;;;5050178;28;20037;-56
2022/03/28 08:28:17;;;;;;;4.18;3.00;;;32.60;1.00;;;;;;5060159;28;20091;-54
2022/03/28 08:31:43;;;;;;;8.57;3.60;;;32.70;1.00;;;;;;5057143;28;20027;-56
2022/03/28 08:35:08;;;;;;;5.88;3.10;;;32.60;1.00;;;;;;5052586;28;20037;-56
2022/03/28 08:38:35;;;;;;;6.18;3.17;;;32.30;1.00;;;;;;5068397;28;20032;-54
2022/03/28 08:41:59;;;;;;;9.18;3.65;;;32.60;1.00;;;;;;5058771;28;20033;-56
2022/03/28 08:45:24;;;;;;;5.75;3.20;;;32.90;1.00;;;;;;5032224;28;20429;-55
2022/03/28 08:48:49;;;;;;;4.97;2.50;;;33.10;1.00;;;;;;5068881;28;20044;-55
2022/03/28 08:52:16;;;;;;;6.10;2.90;;;33.10;1.00;;;;;;5064248;28;20037;-55
2022/03/28 08:55:40;;;;;;;3.95;2.88;;;32.70;1.00;;;;;;5068549;28;20483;-56
2022/03/28 08:59:06;;;;;;;4.85;2.78;;;32.30;1.00;;;;;;5060780;28;20032;-56
2022/03/28 09:02:50;;;;;;;4.65;3.03;;;32.20;1.00;;;;;;5054224;28;20478;-54
2022/03/28 09:06:14;;;;;;;3.58;2.45;;;32.70;1.00;;;;;;5068550;28;20045;-55
2022/03/28 09:09:58;;;;;;;5.03;2.75;;;32.90;1.00;;;;;;5060859;28;20041;-56
2022/03/28 09:13:42;;;;;;;6.40;2.58;;;32.70;1.00;;;;;;5064842;28;20040;-54
2022/03/28 09:17:09;;;;;;;3.75;2.70;;;32.20;1.00;;;;;;5044526;28;20037;-55
2022/03/28 09:20:33;;;;;;;5.05;2.83;;;31.90;1.00;;;;;;5063080;28;20040;-54
2022/03/28 09:24:05;;;;;;;2.78;2.35;;;32.20;1.00;;;;;;5068005;28;20113;-56
2022/03/28 09:27:33;;;;;;;5.85;3.00;;;32.70;1.00;;;;;;5049211;28;20041;-55
2022/03/28 09:30:58;;;;;;;4.13;2.50;;;32.80;1.00;;;;;;5059871;28;20103;-56
2022/03/28 09:34:33;;;;;;;4.70;2.80;;;32.40;1.00;;;;;;5060070;28;20037;-55
2022/03/28 09:37:53;;;;;;;5.00;2.65;;;32.30;1.00;;;;;;5044143;28;20037;-56
2022/03/28 09:41:25;;;;;;;3.75;2.40;;;32.40;1.00;;;;;;5058246;28;20453;-54
2022/03/28 09:44:49;;;;;;;3.83;2.65;;;32.70;1.00;;;;;;5052355;28;20587;-54
2022/03/28 09:48:15;;;;;;;6.53;2.28;;;32.30;1.00;;;;;;5061433;28;20041;-56
2022/03/28 09:51:39;;;;;;;3.65;2.10;;;32.10;1.00;;;;;;5057486;28;20024;-56
2022/03/28 09:55:04;;;;;;;6.78;2.45;;;32.30;1.00;;;;;;5050895;28;20041;-55
2022/03/28 09:58:30;;;;;;;7.80;2.20;;;32.30;1.00;;;;;;5065609;28;20048;-54
2022/03/28 10:01:43;;;;;;;8.75;2.25;;;32.50;1.00;;;;;;5039734;28;20044;-54
2022/03/28 10:05:06;;;;;;;5.32;2.60;;;32.70;1.00;;;;;;5030921;28;20485;-56
2022/03/28 10:08:32;;;;;;;3.45;2.42;;;32.40;1.00;;;;;;5066124;28;20064;-54
2022/03/28 10:11:57;;;;;;;5.50;2.15;;;32.10;1.00;;;;;;5065259;28;20044;-56
2022/03/28 10:15:22;;;;;;;11.02;2.40;;;31.80;1.00;;;;;;5059477;28;20125;-54
2022/03/28 10:18:50;;;;;;;3.45;2.22;;;31.50;1.00;;;;;;5059534;28;20044;-53
2022/03/28 10:22:13;;;;;;;10.15;2.35;;;30.90;1.00;;;;;;5064370;28;20485;-54
2022/03/28 10:25:39;;;;;;;4.53;2.28;;;27.80;1.00;;;;;;5059334;28;20033;-55
2022/03/28 10:29:04;;;;;;;4.10;2.40;;;24.80;1.00;;;;;;5059023;28;20082;-50
2022/03/28 10:32:12;;;;;;;5.25;2.05;;;22.90;2.40;;;;;;5048882;28;20064;-50
2022/03/28 10:35:38;;;;;;;2.88;1.88;;;21.60;3.30;;;;;;5059136;28;20064;-52
2022/03/28 10:39:03;;;;;;;3.13;2.08;;;20.40;5.00;;;;;;5068267;28;20036;-55
2022/03/28 10:42:37;;;;;;;6.28;2.20;;;19.60;6.70;;;;;;5064601;28;20559;-54
2022/03/28 10:45:43;;;;;;;5.32;2.13;;;19.10;7.10;;;;;;5030070;28;20034;-52
2022/03/28 10:48:54;;;;;;;5.35;2.33;;;18.70;9.60;;;;;;5061948;28;20237;-54
2022/03/28 10:52:20;;;;;;;4.80;2.38;;;18.50;9.30;;;;;;5048181;28;20037;-50
2022/03/28 10:55:57;;;;;;;5.47;2.30;;;18.30;10.80;;;;;;5058220;28;20033;-54
2022/03/28 10:59:30;;;;;;;3.42;1.95;;;18.00;10.70;;;;;;5058465;28;20749;-50
2022/03/28 11:03:09;;;;;;;7.60;2.15;;;17.90;10.80;;;;;;5042508;28;20120;-53
2022/03/28 11:06:34;;;;;;;4.18;1.75;;;17.70;13.00;;;;;;5056157;28;20037;-51
2022/03/28 11:09:58;;;;;;;5.35;2.13;;;17.60;12.80;;;;;;5049636;28;20036;-52
2022/03/28 11:13:32;;;;;;;4.22;2.35;;;17.60;14.00;;;;;;5056367;28;20074;-54
2022/03/28 11:16:38;;;;;;;4.95;2.13;;;17.40;13.00;;;;;;5054579;28;20033;-52
2022/03/28 11:19:56;;;;;;;3.95;2.38;;;17.40;14.40;;;;;;5049789;28;20082;-51
2022/03/28 11:23:27;;;;;;;3.53;1.98;;;17.30;14.40;;;;;;5061727;28;20032;-52
2022/03/28 11:26:52;;;;;;;6.65;3.08;;;17.20;14.70;;;;;;5057284;28;20054;-54
2022/03/28 11:30:24;;;;;;;4.55;2.47;;;17.10;15.10;;;;;;5029422;28;20033;-54
2022/03/28 11:33:51;;;;;;;2.88;2.10;;;17.10;14.70;;;;;;5065415;28;20036;-54
2022/03/28 11:37:14;;;;;;;5.55;2.00;;;17.00;16.20;;;;;;5047627;28;20047;-51
2022/03/28 11:40:40;;;;;;;4.60;2.17;;;17.00;16.30;;;;;;5065444;28;20040;-53
2022/03/28 11:43:48;;;;;;;3.55;2.05;;;17.00;15.50;;;;;;5063244;28;20084;-55
2022/03/28 11:47:17;;;;;;;4.03;2.25;;;17.00;14.50;;;;;;5042590;28;20186;-51
2022/03/28 11:50:39;;;;;;;8.27;2.20;;;17.00;15.30;;;;;;5064472;28;20369;-52
2022/03/28 11:54:04;;;;;;;4.55;2.42;;;17.10;16.10;;;;;;5066910;28;20045;-55
2022/03/28 12:00:54;;;;;;;4.90;2.38;;;16.90;16.40;;;;;;5059391;28;20063;-54
2022/03/28 12:04:28;;;;;;;3.03;1.83;;;16.80;16.90;;;;;;5067805;28;20048;-51
2022/03/28 12:07:54;;;;;;;6.85;2.25;;;16.80;16.70;;;;;;5046839;28;20140;-53
2022/03/28 12:11:19;;;;;;;4.32;2.53;;;16.70;17.10;;;;;;5027523;28;20030;-51
2022/03/28 12:14:46;;;;;;;5.85;2.35;;;16.70;16.70;;;;;;5051309;28;20032;-55
2022/03/28 12:17:30;;;;;;;6.22;2.20;;;16.80;17.60;;;;;;5058209;28;20090;-46
2022/03/28 12:20:06;;;;;;;3.92;2.25;;;16.80;16.50;;;;;;5049162;28;20021;-50
2022/03/28 12:22:46;;;;;;;3.22;1.83;;;16.80;16.80;;;;;;5050630;28;20036;-51
2022/03/28 12:25:23;;;;;;;5.90;2.55;;;16.80;16.90;;;;;;5061226;28;20087;-53
2022/03/28 12:27:57;;;;;;;5.20;2.72;;;16.80;17.70;;;;;;5047719;28;20401;-50
2022/03/28 12:30:28;;;;;;;6.00;2.80;;;16.80;16.90;;;;;;5028875;28;20115;-51
2022/03/28 12:32:54;;;;;;;3.65;2.15;;;16.80;17.20;;;;;;5045842;28;20163;-53
2022/03/28 12:35:21;;;;;;;7.95;2.00;;;16.80;17.30;;;;;;5065862;28;20033;-49
2022/03/28 12:38:00;;;;;;;6.25;2.60;;;16.80;17.20;;;;;;5048959;28;20029;-54
2022/03/28 12:40:29;;;;;;;2.90;2.00;;;16.80;17.60;;;;;;5044398;28;20036;-49
2022/03/28 12:42:55;;;;;;;6.15;3.05;;;16.70;17.60;;;;;;5048692;28;20029;-52
2022/03/28 12:45:25;;;;;;;7.15;3.03;;;16.70;18.50;;;;;;5065929;28;20025;-52
2022/03/28 12:48:01;;;;;;;3.78;2.53;;;16.80;17.80;;;;;;5048574;28;20041;-54
2022/03/28 12:50:27;;;;;;;4.85;3.00;;;16.80;18.10;;;;;;5044383;28;20067;-52
2022/03/28 12:53:33;;;;;;;7.07;2.58;;;16.80;18.10;;;;;;5046698;28;20029;-51
2022/03/28 12:56:41;;;;;;;4.05;2.50;;;16.80;19.10;;;;;;5040800;28;20037;-48
2022/03/28 13:00:08;;;;;;;5.97;3.60;;;16.70;19.30;;;;;;5027607;28;20047;-52
2022/03/28 13:03:47;;;;;;;4.38;2.60;;;16.70;20.50;;;;;;5063585;28;20064;-52
2022/03/28 13:07:12;;;;;;;5.97;2.63;;;16.70;20.10;;;;;;5045742;28;20171;-51
2022/03/28 13:10:21;;;;;;;4.13;2.60;;;16.70;19.60;;;;;;5041417;28;20036;-54
2022/03/28 13:13:46;;;;;;;5.15;3.03;;;16.70;19.30;;;;;;5044065;28;20037;-50
2022/03/28 13:17:10;;;;;;;5.35;2.90;;;16.70;20.90;;;;;;5041756;28;20037;-53
2022/03/28 13:20:36;;;;;;;4.15;3.00;;;16.70;20.50;;;;;;5057040;28;20192;-51
2022/03/28 13:24:01;;;;;;;5.40;2.58;;;16.60;21.20;;;;;;5054375;28;20041;-55
2022/03/28 13:30:42;;;;;;;4.40;2.65;;;16.60;21.60;;;;;;5047689;28;20677;-51
2022/03/28 13:34:08;;;;;;;4.13;2.75;;;16.60;21.70;;;;;;5041513;28;20087;-51
2022/03/28 13:37:33;;;;;;;4.18;2.63;;;16.60;21.50;;;;;;5056477;28;20484;-50
2022/03/28 13:41:00;;;;;;;4.82;2.63;;;16.60;21.00;;;;;;5061680;28;20134;-55
2022/03/28 13:44:24;;;;;;;4.57;2.88;;;16.60;22.00;;;;;;5048256;28;20846;-52
2022/03/28 13:47:50;;;;;;;5.10;3.20;;;16.60;22.40;;;;;;5060999;28;20559;-55
2022/03/28 13:51:15;;;;;;;5.43;2.78;;;16.60;21.50;;;;;;5056127;28;20074;-55
2022/03/28 13:54:40;;;;;;;4.63;2.95;;;16.50;22.80;;;;;;5041808;28;20033;-55
2022/03/28 13:58:05;;;;;;;8.40;3.13;;;16.50;23.20;;;;;;5054603;28;20028;-53
2022/03/28 14:01:31;;;;;;;6.80;2.92;;;16.50;23.50;;;;;;5063554;28;20071;-55
2022/03/28 14:04:56;;;;;;;7.30;3.38;;;16.50;23.80;;;;;;5043647;28;20115;-55
2022/03/28 14:08:22;;;;;;;4.57;3.25;;;16.40;24.10;;;;;;5065422;28;20048;-50
2022/03/28 14:11:47;;;;;;;5.85;3.72;;;16.40;23.70;;;;;;5064269;28;20102;-53
2022/03/28 14:15:13;;;;;;;8.00;3.10;;;16.40;24.60;;;;;;5040870;28;20045;-52
2022/03/28 14:18:38;;;;;;;4.25;3.03;;;16.40;24.00;;;;;;5051377;28;20393;-51
2022/03/28 14:21:23;;;;;;;8.18;3.42;;;16.30;23.70;;;;;;5063442;28;20036;-53
2022/03/28 14:23:48;;;;;;;4.75;2.72;;;16.30;23.10;;;;;;5067375;28;20085;-54
2022/03/28 14:26:54;;;;;;;4.85;2.53;;;16.30;23.40;;;;;;5053166;28;20053;-49
2022/03/28 14:30:19;;;;;;;5.65;3.00;;;16.30;24.80;;;;;;5043177;28;20043;-52
2022/03/28 14:33:45;;;;;;;4.38;2.70;;;16.30;24.40;;;;;;5044250;28;20558;-51
2022/03/28 14:37:11;;;;;;;6.13;2.80;;;16.30;25.00;;;;;;5059682;28;20139;-53
2022/03/28 14:40:35;;;;;;;7.55;3.35;;;16.20;25.30;;;;;;5048503;28;20405;-54
2022/03/28 14:44:01;;;;;;;5.00;3.22;;;16.30;25.00;;;;;;5051141;28;20036;-52
2022/03/28 14:47:26;;;;;;;5.90;2.97;;;16.20;24.30;;;;;;5047986;28;20532;-51
2022/03/28 14:50:51;;;;;;;6.28;3.30;;;16.20;25.00;;;;;;5046530;28;20039;-55
2022/03/28 14:54:17;;;;;;;4.40;2.88;;;16.20;25.00;;;;;;5059957;28;20454;-50